Terminal Aerodrome Forecast
Issued by NWS Charleston, WV

Current Version | Previous Version | Graphics & Text | Print | Product List | Glossary On
Versions: 1 2 3 4 5 6 7 8 9 10 11 12 13 14 15 16 17 18 19 20 21 22 23 24 25
000
FTUS41 KRLX 280247 AAA
TAFPKB
TAF AMD
KPKB 280247Z 2803/2824 13004KT P6SM FEW250
     FM280400 00000KT P6SM FEW250
     FM280700 00000KT 3SM BR FEW060
     FM280800 00000KT 2SM BR FEW060
     FM281300 00000KT P6SM SCT045=

USA.gov is the U.S. government's official web portal to all federal, state and local government web resources and services.